Time;durP1;ratioP1;P1;durP2;ratioP2;P2;SDS_P1;SDS_P2;PMS_P1;PMS_P2;Temp;Humidity;BMP_temperature;BMP_pressure;BME280_temperature;BME280_humidity;BME280_pressure;Samples;Min_cycle;Max_cycle;Signal;HPM_P1;HPM_P2
2020/12/12 00:00:39;0.00;0.00;0.62;0.00;0.00;0.62;;;;;13.20;1.00;;;;;;2289081;60;2004;-88
2020/12/12 00:03:05;16666.00;0.06;29.50;0.00;0.00;0.62;;;;;13.20;1.00;;;;;;2289045;60;1299;-87
2020/12/12 00:05:32;42268.00;0.14;73.81;0.00;0.00;0.62;;;;;13.20;1.00;;;;;;2289050;60;1571;-87
2020/12/12 00:07:58;6464.00;0.02;11.82;0.00;0.00;0.62;;;;;13.30;1.00;;;;;;2289087;60;1117;-87
2020/12/12 00:10:26;30136.00;0.10;52.82;0.00;0.00;0.62;;;;;13.40;1.00;;;;;;2289080;60;1126;-88
2020/12/12 00:12:52;0.00;0.00;0.62;0.00;0.00;0.62;;;;;13.20;1.00;;;;;;2289020;60;1392;-88
2020/12/12 00:15:19;70786.00;0.24;123.12;0.00;0.00;0.62;;;;;13.20;1.00;;;;;;2289055;60;1085;-88
2020/12/12 00:17:47;0.00;0.00;0.62;0.00;0.00;0.62;;;;;13.10;1.00;;;;;;2289038;60;990;-87
2020/12/12 00:20:13;0.00;0.00;0.62;0.00;0.00;0.62;;;;;13.10;1.00;;;;;;2288991;60;1919;-88
2020/12/12 00:22:40;51510.00;0.17;89.80;0.00;0.00;0.62;;;;;13.00;1.00;;;;;;2289016;60;1463;-85
2020/12/12 00:25:08;0.00;0.00;0.62;0.00;0.00;0.62;;;;;12.80;1.00;;;;;;2289034;60;1129;-86
2020/12/12 00:27:34;57605.00;0.19;100.34;0.00;0.00;0.62;;;;;12.70;1.00;;;;;;2289048;60;1085;-86
2020/12/12 00:30:01;0.00;0.00;0.62;0.00;0.00;0.62;;;;;12.60;1.00;;;;;;2288953;60;1046;-86
2020/12/12 00:32:27;24996.00;0.08;43.92;0.00;0.00;0.62;;;;;12.50;1.00;;;;;;2281835;60;1355;-86
2020/12/12 00:34:54;3344.00;0.01;6.42;0.00;0.00;0.62;;;;;12.40;1.00;;;;;;2289034;60;1152;-85
2020/12/12 00:37:21;0.00;0.00;0.62;0.00;0.00;0.62;;;;;12.30;1.00;;;;;;2288999;60;1017;-85
2020/12/12 00:39:47;0.00;0.00;0.62;0.00;0.00;0.62;;;;;12.20;1.00;;;;;;2288971;60;1929;-84
2020/12/12 00:42:14;4519.00;0.02;8.45;0.00;0.00;0.62;;;;;12.30;1.00;;;;;;2288904;60;1580;-85
2020/12/12 00:44:40;65907.00;0.22;114.69;0.00;0.00;0.62;;;;;12.40;1.00;;;;;;2288952;60;1037;-85
2020/12/12 00:47:07;114833.00;0.38;199.17;0.00;0.00;0.62;;;;;12.40;1.00;;;;;;2288955;60;1019;-86
2020/12/12 00:49:34;99199.00;0.33;172.19;0.00;0.00;0.62;;;;;12.20;1.00;;;;;;2288966;60;958;-86
2020/12/12 00:52:01;0.00;0.00;0.62;0.00;0.00;0.62;;;;;12.30;1.00;;;;;;2288907;60;1423;-84
2020/12/12 00:54:28;62058.00;0.21;108.03;0.00;0.00;0.62;;;;;12.40;1.00;;;;;;2288917;60;1001;-85
2020/12/12 00:56:54;35536.00;0.12;62.16;0.00;0.00;0.62;;;;;12.60;1.00;;;;;;2288925;60;907;-85
2020/12/12 00:59:20;0.00;0.00;0.62;0.00;0.00;0.62;;;;;12.60;1.00;;;;;;2288858;60;1928;-85
2020/12/12 01:01:47;29393.00;0.10;51.53;0.00;0.00;0.62;;;;;12.70;1.00;;;;;;2288895;60;1110;-88
2020/12/12 01:04:14;0.00;0.00;0.62;0.00;0.00;0.62;;;;;12.80;1.00;;;;;;2288902;60;1058;-87
2020/12/12 01:06:41;0.00;0.00;0.62;0.00;0.00;0.62;;;;;12.90;1.00;;;;;;2288863;60;1070;-86
2020/12/12 01:09:08;236531.00;0.79;408.78;35110.00;0.12;61.43;;;;;12.80;1.00;;;;;;2288724;60;1111;-86
2020/12/12 01:11:35;0.00;0.00;0.62;0.00;0.00;0.62;;;;;12.80;1.00;;;;;;2288854;60;1149;-86
2020/12/12 01:14:01;0.00;0.00;0.62;0.00;0.00;0.62;;;;;12.70;1.00;;;;;;2288876;60;1277;-86
2020/12/12 01:16:27;71619.00;0.24;124.56;0.00;0.00;0.62;;;;;11.90;1.00;;;;;;2288833;60;1113;-86
2020/12/12 01:18:54;29864.00;0.10;52.35;0.00;0.00;0.62;;;;;11.60;1.00;;;;;;2288758;60;2000;-85
2020/12/12 01:21:21;45008.00;0.15;78.55;0.00;0.00;0.62;;;;;11.70;1.00;;;;;;2288867;60;1042;-85
2020/12/12 01:23:48;66772.00;0.22;116.18;0.00;0.00;0.62;;;;;11.60;1.00;;;;;;2288815;60;1311;-85
2020/12/12 01:26:15;12615.00;0.04;22.48;0.00;0.00;0.62;;;;;11.40;1.00;;;;;;2288870;60;1108;-86
2020/12/12 01:28:41;99587.00;0.33;172.86;0.00;0.00;0.62;;;;;11.30;1.00;;;;;;2288830;60;1102;-85
2020/12/12 01:31:12;0.00;0.00;0.62;0.00;0.00;0.62;;;;;11.10;1.00;;;;;;2288919;60;1130;-85
2020/12/12 01:33:38;0.00;0.00;0.62;0.00;0.00;0.62;;;;;11.10;1.00;;;;;;2288839;60;1356;-85
2020/12/12 01:36:05;0.00;0.00;0.62;0.00;0.00;0.62;;;;;11.20;1.00;;;;;;2288886;60;1105;-85
2020/12/12 01:38:32;0.00;0.00;0.62;0.00;0.00;0.62;;;;;11.20;1.00;;;;;;2288886;60;928;-85
2020/12/12 01:40:58;14794.00;0.05;26.25;0.00;0.00;0.62;;;;;11.30;1.00;;;;;;2288844;60;2010;-85
2020/12/12 01:43:26;27643.00;0.09;48.50;0.00;0.00;0.62;;;;;11.40;1.00;;;;;;2281676;60;1379;-85
2020/12/12 01:45:52;58993.00;0.20;102.74;0.00;0.00;0.62;;;;;11.50;1.00;;;;;;2288877;60;914;-85
2020/12/12 01:48:19;14188.00;0.05;25.20;0.00;0.00;0.62;;;;;11.40;1.00;;;;;;2288855;60;977;-84
2020/12/12 01:50:46;0.00;0.00;0.62;0.00;0.00;0.62;;;;;11.30;1.00;;;;;;2288832;60;1119;-85
2020/12/12 01:53:14;38877.00;0.13;67.95;0.00;0.00;0.62;;;;;11.50;1.00;;;;;;2288788;60;1279;-85
2020/12/12 01:55:47;32674.00;0.11;57.21;0.00;0.00;0.62;;;;;11.60;1.00;;;;;;2288837;60;1129;-85
2020/12/12 01:58:14;0.00;0.00;0.62;0.00;0.00;0.62;;;;;11.80;1.00;;;;;;2288800;60;1170;-86
2020/12/12 02:00:41;0.00;0.00;0.62;0.00;0.00;0.62;;;;;11.90;1.00;;;;;;2288804;60;1919;-86
2020/12/12 02:03:10;0.00;0.00;0.62;0.00;0.00;0.62;;;;;12.20;1.00;;;;;;2288764;60;1279;-86
2020/12/12 02:05:42;0.00;0.00;0.62;0.00;0.00;0.62;;;;;12.10;1.00;;;;;;2288775;60;1050;-86
2020/12/12 02:08:12;0.00;0.00;0.62;0.00;0.00;0.62;;;;;11.70;1.00;;;;;;2288797;60;1109;-86
2020/12/12 02:10:40;17324.00;0.06;30.64;0.00;0.00;0.62;;;;;11.60;1.00;;;;;;2281648;60;930;-86
2020/12/12 02:13:08;0.00;0.00;0.62;0.00;0.00;0.62;;;;;11.20;1.00;;;;;;2288750;60;1332;-86
2020/12/12 02:15:35;31748.00;0.11;55.61;0.00;0.00;0.62;;;;;11.00;1.00;;;;;;2288785;60;940;-86
2020/12/12 02:18:03;44001.00;0.15;76.81;0.00;0.00;0.62;;;;;10.90;1.00;;;;;;2288756;60;1117;-86
2020/12/12 02:20:30;0.00;0.00;0.62;0.00;0.00;0.62;;;;;11.00;1.00;;;;;;2289009;60;1915;-86
2020/12/12 02:22:58;11686.00;0.04;20.87;0.00;0.00;0.62;;;;;11.10;1.00;;;;;;2289397;60;1369;-86
2020/12/12 02:25:24;139697.00;0.47;242.05;17335.00;0.06;30.65;;;;;11.20;1.00;;;;;;2289515;60;1013;-86
2020/12/12 02:27:54;45701.00;0.15;79.75;0.00;0.00;0.62;;;;;11.50;1.00;;;;;;2289475;60;965;-86
2020/12/12 02:30:20;0.00;0.00;0.62;0.00;0.00;0.62;;;;;11.70;1.00;;;;;;2289453;60;1049;-86
2020/12/12 02:32:47;115751.00;0.39;200.75;6583.00;0.02;12.03;;;;;12.00;1.00;;;;;;2289450;60;1277;-86
2020/12/12 02:35:14;0.00;0.00;0.62;0.00;0.00;0.62;;;;;12.10;1.00;;;;;;2289439;60;1150;-87
2020/12/12 02:37:40;0.00;0.00;0.62;0.00;0.00;0.62;;;;;12.20;1.00;;;;;;2289436;60;1045;-86
2020/12/12 02:40:08;0.00;0.00;0.62;0.00;0.00;0.62;;;;;12.30;1.00;;;;;;2289381;60;1923;-86
2020/12/12 02:42:34;29021.00;0.10;50.89;0.00;0.00;0.62;;;;;12.30;1.00;;;;;;2289377;60;1390;-87
2020/12/12 02:45:01;16125.00;0.05;28.56;0.00;0.00;0.62;;;;;12.10;1.00;;;;;;2289393;60;1085;-87
2020/12/12 02:47:31;8008.00;0.03;14.50;0.00;0.00;0.62;;;;;12.20;1.00;;;;;;2289408;60;1097;-86
2020/12/12 02:50:07;20208.00;0.07;35.63;0.00;0.00;0.62;;;;;12.30;1.00;;;;;;2289369;60;1066;-86
2020/12/12 02:52:33;0.00;0.00;0.62;0.00;0.00;0.62;;;;;12.40;1.00;;;;;;2289356;60;1375;-87
2020/12/12 02:55:00;24202.00;0.08;42.55;0.00;0.00;0.62;;;;;12.60;1.00;;;;;;2289369;60;1135;-85
2020/12/12 02:57:28;51514.00;0.17;89.80;0.00;0.00;0.62;;;;;12.60;1.00;;;;;;2289361;60;1058;-86
2020/12/12 02:59:54;0.00;0.00;0.62;0.00;0.00;0.62;;;;;12.60;1.00;;;;;;2289329;60;1915;-84
2020/12/12 03:02:20;35667.00;0.12;62.39;0.00;0.00;0.62;;;;;12.60;1.00;;;;;;2289312;60;1316;-86
2020/12/12 03:04:47;98527.00;0.33;171.03;0.00;0.00;0.62;;;;;12.10;1.00;;;;;;2289324;60;1115;-86
2020/12/12 03:07:13;14561.00;0.05;25.85;0.00;0.00;0.62;;;;;11.80;1.00;;;;;;2289337;60;1113;-85
2020/12/12 03:09:40;25641.00;0.09;45.04;0.00;0.00;0.62;;;;;11.90;1.00;;;;;;2289320;60;1003;-86
2020/12/12 03:12:06;12119.00;0.04;21.62;0.00;0.00;0.62;;;;;12.20;1.00;;;;;;2289314;60;1311;-86
2020/12/12 03:14:34;67013.00;0.22;116.60;0.00;0.00;0.62;;;;;12.40;1.00;;;;;;2289328;60;1031;-86
2020/12/12 03:17:00;0.00;0.00;0.62;0.00;0.00;0.62;;;;;12.50;1.00;;;;;;2289323;60;922;-86
2020/12/12 03:19:27;0.00;0.00;0.62;0.00;0.00;0.62;;;;;12.40;1.00;;;;;;2289308;60;1914;-86
2020/12/12 03:25:15;0.00;0.00;0.62;0.00;0.00;0.62;;;;;12.60;1.00;;;;;;2289341;60;684;-85
2020/12/12 03:27:52;0.00;0.00;0.62;0.00;0.00;0.62;;;;;11.80;1.00;;;;;;2289289;60;998;-86
2020/12/12 03:33:41;73368.00;0.24;127.58;0.00;0.00;0.62;;;;;11.80;1.00;;;;;;2289322;60;1372;-86
2020/12/12 03:36:08;0.00;0.00;0.62;0.00;0.00;0.62;;;;;11.70;1.00;;;;;;2289202;60;1043;-86
2020/12/12 03:38:34;0.00;0.00;0.62;0.00;0.00;0.62;;;;;12.00;1.00;;;;;;2289378;60;1061;-86
2020/12/12 03:41:01;0.00;0.00;0.62;0.00;0.00;0.62;;;;;12.10;1.00;;;;;;2289192;60;2004;-86
2020/12/12 03:43:27;16747.00;0.06;29.64;0.00;0.00;0.62;;;;;12.40;1.00;;;;;;2289230;60;1297;-86
2020/12/12 03:45:54;48623.00;0.16;84.80;0.00;0.00;0.62;;;;;12.60;1.00;;;;;;2289249;60;996;-86
2020/12/12 03:48:20;0.00;0.00;0.62;0.00;0.00;0.62;;;;;12.70;1.00;;;;;;2289219;60;1109;-86
2020/12/12 03:50:47;11025.00;0.04;19.72;0.00;0.00;0.62;;;;;12.80;1.00;;;;;;2289196;60;1128;-86
2020/12/12 03:53:14;0.00;0.00;0.62;0.00;0.00;0.62;;;;;12.90;1.00;;;;;;2289124;60;1487;-86
2020/12/12 03:55:40;74501.00;0.25;129.54;0.00;0.00;0.62;;;;;13.00;1.00;;;;;;2289143;60;1124;-85
2020/12/12 03:58:07;30572.00;0.10;53.57;0.00;0.00;0.62;;;;;13.10;1.00;;;;;;2289197;60;1079;-85
2020/12/12 04:00:33;0.00;0.00;0.62;0.00;0.00;0.62;;;;;13.00;1.00;;;;;;2289166;60;2002;-86
2020/12/12 04:02:59;19107.00;0.06;33.72;0.00;0.00;0.62;;;;;12.80;1.00;;;;;;2289173;60;1378;-86
2020/12/12 04:05:26;66061.00;0.22;114.95;0.00;0.00;0.62;;;;;12.70;1.00;;;;;;2289190;60;1074;-85
2020/12/12 04:07:53;60396.00;0.20;105.16;0.00;0.00;0.62;;;;;12.60;1.00;;;;;;2289183;60;1008;-86
2020/12/12 04:10:20;0.00;0.00;0.62;0.00;0.00;0.62;;;;;12.60;1.00;;;;;;2289158;60;1125;-86
2020/12/12 04:12:46;0.00;0.00;0.62;0.00;0.00;0.62;;;;;12.50;1.00;;;;;;2289107;60;1303;-86
2020/12/12 04:15:12;0.00;0.00;0.62;0.00;0.00;0.62;;;;;12.60;1.00;;;;;;2289135;60;1007;-86
2020/12/12 04:17:39;0.00;0.00;0.62;0.00;0.00;0.62;;;;;12.70;1.00;;;;;;2289125;60;1089;-86
2020/12/12 04:20:05;9278.00;0.03;16.70;0.00;0.00;0.62;;;;;12.60;1.00;;;;;;2289059;60;2002;-86
2020/12/12 04:22:32;0.00;0.00;0.62;0.00;0.00;0.62;;;;;12.70;1.00;;;;;;2289179;60;1288;-86
2020/12/12 04:24:59;0.00;0.00;0.62;0.00;0.00;0.62;;;;;12.60;1.00;;;;;;2289250;60;1241;-85
2020/12/12 04:27:29;0.00;0.00;0.62;0.00;0.00;0.62;;;;;12.50;1.00;;;;;;2289247;60;1083;-86
2020/12/12 04:29:56;0.00;0.00;0.62;0.00;0.00;0.62;;;;;12.50;1.00;;;;;;2289152;60;1635;-87
2020/12/12 04:32:22;106061.00;0.35;184.03;0.00;0.00;0.62;;;;;12.40;1.00;;;;;;2289223;60;1392;-86
2020/12/12 04:34:52;43347.00;0.14;75.68;0.00;0.00;0.62;;;;;11.90;1.00;;;;;;2289231;60;1118;-86
2020/12/12 04:37:18;0.00;0.00;0.62;0.00;0.00;0.62;;;;;11.70;1.00;;;;;;2289287;60;1109;-86
2020/12/12 04:39:45;88698.00;0.30;154.06;0.00;0.00;0.62;;;;;11.70;1.00;;;;;;2289259;60;1993;-86
2020/12/12 04:42:15;73415.00;0.24;127.66;0.00;0.00;0.62;;;;;11.40;1.00;;;;;;2289183;60;1417;-86
2020/12/12 04:44:43;0.00;0.00;0.62;0.00;0.00;0.62;;;;;11.30;1.00;;;;;;2289223;60;936;-86
2020/12/12 04:47:10;229726.00;0.77;397.08;96303.00;0.32;167.19;;;;;11.80;1.00;;;;;;2289293;60;1096;-86
2020/12/12 04:49:37;1910.00;0.01;3.93;0.00;0.00;0.62;;;;;11.30;1.00;;;;;;2289321;60;907;-86
2020/12/12 04:52:04;107391.00;0.36;186.33;0.00;0.00;0.62;;;;;11.40;1.00;;;;;;2289216;60;1414;-86
2020/12/12 04:54:33;0.00;0.00;0.62;0.00;0.00;0.62;;;;;11.50;1.00;;;;;;2289257;60;1089;-86
2020/12/12 04:57:03;63628.00;0.21;110.75;0.00;0.00;0.62;;;;;11.70;1.00;;;;;;2289301;60;1023;-87
2020/12/12 04:59:33;0.00;0.00;0.62;0.00;0.00;0.62;;;;;12.00;1.00;;;;;;2289217;60;2002;-87
2020/12/12 05:02:01;22825.00;0.08;40.16;0.00;0.00;0.62;;;;;12.30;1.00;;;;;;2289256;60;1312;-86
2020/12/12 05:04:27;0.00;0.00;0.62;0.00;0.00;0.62;;;;;12.40;1.00;;;;;;2289192;60;1023;-87
2020/12/12 05:06:55;20169.00;0.07;35.56;0.00;0.00;0.62;;;;;12.60;1.00;;;;;;2289327;60;901;-87
2020/12/12 05:09:22;0.00;0.00;0.62;0.00;0.00;0.62;;;;;12.60;1.00;;;;;;2289304;60;1085;-86
2020/12/12 05:11:49;0.00;0.00;0.62;0.00;0.00;0.62;;;;;12.50;1.00;;;;;;2280612;60;1355;-87
2020/12/12 05:14:18;0.00;0.00;0.62;0.00;0.00;0.62;;;;;12.50;1.00;;;;;;2280701;60;1112;-87
2020/12/12 05:16:46;0.00;0.00;0.62;0.00;0.00;0.62;;;;;12.60;1.00;;;;;;2280711;60;1006;-87
2020/12/12 05:19:14;44593.00;0.15;77.83;0.00;0.00;0.62;;;;;12.50;1.00;;;;;;2280654;60;1677;-86
2020/12/12 05:21:46;17100.00;0.06;30.25;0.00;0.00;0.62;;;;;12.60;1.00;;;;;;2280702;60;1125;-86
2020/12/12 05:24:13;0.00;0.00;0.62;0.00;0.00;0.62;;;;;12.60;1.00;;;;;;2280665;60;1107;-87
2020/12/12 05:26:40;66567.00;0.22;115.83;0.00;0.00;0.62;;;;;12.60;1.00;;;;;;2280696;60;1093;-86
2020/12/12 05:29:08;0.00;0.00;0.62;0.00;0.00;0.62;;;;;12.50;1.00;;;;;;2282351;60;1120;-86
2020/12/12 05:31:35;22927.00;0.08;40.34;0.00;0.00;0.62;;;;;12.40;1.00;;;;;;2289251;60;1025;-86
2020/12/12 05:34:11;37082.00;0.12;64.84;0.00;0.00;0.62;;;;;12.40;1.00;;;;;;2289189;60;1532;-86
2020/12/12 05:36:39;69503.00;0.23;120.90;0.00;0.00;0.62;;;;;12.40;1.00;;;;;;2289276;60;1092;-86
2020/12/12 05:39:08;0.00;0.00;0.62;0.00;0.00;0.62;;;;;12.40;1.00;;;;;;2289234;60;1110;-86
2020/12/12 05:41:35;29284.00;0.10;51.34;0.00;0.00;0.62;;;;;12.50;1.00;;;;;;2289205;60;2024;-87
2020/12/12 05:44:01;25931.00;0.09;45.54;0.00;0.00;0.62;;;;;12.60;1.00;;;;;;2289178;60;1410;-86
2020/12/12 05:46:29;0.00;0.00;0.62;0.00;0.00;0.62;;;;;12.80;1.00;;;;;;2289197;60;1033;-86
2020/12/12 05:48:59;81830.00;0.27;142.20;0.00;0.00;0.62;;;;;12.90;1.00;;;;;;2289163;60;1112;-85
2020/12/12 05:51:30;42185.00;0.14;73.67;0.00;0.00;0.62;;;;;12.90;1.00;;;;;;2289204;60;1047;-87
2020/12/12 05:53:58;31363.00;0.10;54.94;0.00;0.00;0.62;;;;;13.00;1.00;;;;;;2289232;60;1418;-87
2020/12/12 05:56:25;0.00;0.00;0.62;0.00;0.00;0.62;;;;;13.10;1.00;;;;;;2289928;60;1057;-87
2020/12/12 05:58:54;0.00;0.00;0.62;0.00;0.00;0.62;;;;;13.20;1.00;;;;;;2289855;60;1642;-86
2020/12/12 06:01:22;0.00;0.00;0.62;0.00;0.00;0.62;;;;;13.20;1.00;;;;;;2289930;60;2006;-86
2020/12/12 06:03:52;0.00;0.00;0.62;0.00;0.00;0.62;;;;;13.20;1.00;;;;;;2289886;60;1346;-86
2020/12/12 06:06:23;0.00;0.00;0.62;0.00;0.00;0.62;;;;;13.10;1.00;;;;;;2289899;60;1082;-86
2020/12/12 06:09:06;58198.00;0.19;101.36;0.00;0.00;0.62;;;;;13.10;1.00;;;;;;2289910;60;1070;-87
2020/12/12 06:11:34;0.00;0.00;0.62;0.00;0.00;0.62;;;;;12.80;1.00;;;;;;2286142;60;951;-86
2020/12/12 06:14:03;52760.00;0.18;91.96;0.00;0.00;0.62;;;;;12.70;1.00;;;;;;2289875;60;1412;-86
2020/12/12 06:16:31;34288.00;0.11;60.00;0.00;0.00;0.62;;;;;13.00;1.00;;;;;;2289825;60;1117;-86
2020/12/12 06:19:11;79176.00;0.26;137.61;0.00;0.00;0.62;;;;;13.10;1.00;;;;;;2289846;60;1174;-88
2020/12/12 06:21:40;59807.00;0.20;104.14;0.00;0.00;0.62;;;;;13.10;1.00;;;;;;2289763;60;1921;-87
2020/12/12 06:24:10;47158.00;0.16;82.27;0.00;0.00;0.62;;;;;13.10;1.00;;;;;;2289760;60;1253;-86
2020/12/12 06:26:51;0.00;0.00;0.62;0.00;0.00;0.62;;;;;13.20;1.00;;;;;;2289855;60;1062;-87
2020/12/12 06:29:20;0.00;0.00;0.62;0.00;0.00;0.62;;;;;13.30;1.00;;;;;;2289717;60;1015;-87
2020/12/12 06:31:47;0.00;0.00;0.62;0.00;0.00;0.62;;;;;13.40;1.00;;;;;;2289782;60;1085;-87
2020/12/12 06:34:13;0.00;0.00;0.62;0.00;0.00;0.62;;;;;13.40;1.00;;;;;;2282647;60;1058;-87
2020/12/12 06:36:45;5648.00;0.02;10.41;0.00;0.00;0.62;;;;;12.80;1.00;;;;;;2289708;60;1601;-86
2020/12/12 06:39:20;0.00;0.00;0.62;0.00;0.00;0.62;;;;;12.80;1.00;;;;;;2289780;60;1073;-87
2020/12/12 06:41:49;0.00;0.00;0.62;0.00;0.00;0.62;;;;;12.60;1.00;;;;;;2289773;60;1994;-86
2020/12/12 06:44:33;0.00;0.00;0.62;0.00;0.00;0.62;;;;;12.50;1.00;;;;;;2289812;60;927;-86
2020/12/12 06:47:00;0.00;0.00;0.62;0.00;0.00;0.62;;;;;12.60;1.00;;;;;;2289748;60;1109;-87
2020/12/12 06:49:27;0.00;0.00;0.62;0.00;0.00;0.62;;;;;12.20;1.00;;;;;;2289692;60;962;-86
2020/12/12 06:51:54;0.00;0.00;0.62;0.00;0.00;0.62;;;;;12.40;1.00;;;;;;2289642;60;1417;-86
2020/12/12 06:54:22;20782.00;0.07;36.62;0.00;0.00;0.62;;;;;12.70;1.00;;;;;;2282556;60;1022;-86
2020/12/12 06:56:49;0.00;0.00;0.62;0.00;0.00;0.62;;;;;12.70;1.00;;;;;;2285907;60;1175;-85
2020/12/12 06:59:30;25012.00;0.08;43.95;0.00;0.00;0.62;;;;;12.90;1.00;;;;;;2289649;60;1145;-85
2020/12/12 07:02:00;59884.00;0.20;104.28;0.00;0.00;0.62;;;;;13.00;1.00;;;;;;2289576;60;1410;-86
2020/12/12 07:04:31;15436.00;0.05;27.37;0.00;0.00;0.62;;;;;13.10;1.00;;;;;;2288942;60;1663;-86
2020/12/12 07:07:04;146646.00;0.49;254.03;0.00;0.00;0.62;;;;;13.10;1.00;;;;;;2289067;60;942;-86
2020/12/12 07:09:33;0.00;0.00;0.62;0.00;0.00;0.62;;;;;13.10;1.00;;;;;;2289467;60;1129;-86
2020/12/12 07:11:59;47678.00;0.16;83.17;0.00;0.00;0.62;;;;;13.20;1.00;;;;;;2289366;60;1278;-86
2020/12/12 07:14:26;167551.00;0.56;290.05;0.00;0.00;0.62;;;;;13.10;1.00;;;;;;2289594;60;1051;-85
2020/12/12 07:16:54;20991.00;0.07;36.99;0.00;0.00;0.62;;;;;13.30;1.00;;;;;;2289612;60;1101;-85
2020/12/12 07:19:37;0.00;0.00;0.62;0.00;0.00;0.62;;;;;13.00;1.00;;;;;;2289622;60;1125;-86
2020/12/12 07:22:06;0.00;0.00;0.62;0.00;0.00;0.62;;;;;13.00;1.00;;;;;;2289262;60;1353;-86
2020/12/12 07:24:34;11075.00;0.04;19.81;0.00;0.00;0.62;;;;;12.90;1.00;;;;;;2289622;60;1076;-86
2020/12/12 07:27:02;0.00;0.00;0.62;0.00;0.00;0.62;;;;;12.90;1.00;;;;;;2289527;60;1141;-87
2020/12/12 07:29:30;0.00;0.00;0.62;0.00;0.00;0.62;;;;;12.80;1.00;;;;;;2289434;60;1011;-86
2020/12/12 07:31:57;0.00;0.00;0.62;0.00;0.00;0.62;;;;;12.90;1.00;;;;;;2289409;60;1333;-87
2020/12/12 07:34:25;0.00;0.00;0.62;0.00;0.00;0.62;;;;;12.80;1.00;;;;;;2289529;60;1086;-86
2020/12/12 07:36:59;0.00;0.00;0.62;0.00;0.00;0.62;;;;;12.60;1.00;;;;;;2289479;60;1124;-86
2020/12/12 07:39:31;0.00;0.00;0.62;0.00;0.00;0.62;;;;;12.60;1.00;;;;;;2289478;60;1101;-86
2020/12/12 07:42:00;0.00;0.00;0.62;0.00;0.00;0.62;;;;;12.80;1.00;;;;;;2289394;60;1406;-86
2020/12/12 07:44:29;125819.00;0.42;218.12;0.00;0.00;0.62;;;;;12.90;1.00;;;;;;2289483;60;1058;-87
2020/12/12 07:46:57;0.00;0.00;0.62;0.00;0.00;0.62;;;;;12.80;1.00;;;;;;2289492;60;1125;-86
2020/12/12 07:49:24;0.00;0.00;0.62;0.00;0.00;0.62;;;;;13.10;1.00;;;;;;2289526;60;1109;-86
2020/12/12 07:52:05;0.00;0.00;0.62;0.00;0.00;0.62;;;;;13.10;1.00;;;;;;2289484;60;1331;-87
2020/12/12 07:54:38;30174.00;0.10;52.88;0.00;0.00;0.62;;;;;12.80;1.00;;;;;;2289539;60;1035;-86
2020/12/12 07:57:09;0.00;0.00;0.62;0.00;0.00;0.62;;;;;12.70;1.00;;;;;;2289484;60;1231;-86
2020/12/12 07:59:35;50827.00;0.17;88.62;0.00;0.00;0.62;;;;;12.50;1.00;;;;;;2289463;60;1037;-86
2020/12/12 08:02:03;30419.00;0.10;53.31;0.00;0.00;0.62;;;;;12.50;1.00;;;;;;2289384;60;1462;-86
2020/12/12 08:04:30;53489.00;0.18;93.22;0.00;0.00;0.62;;;;;12.90;1.00;;;;;;2289497;60;1053;-86
2020/12/12 08:06:57;0.00;0.00;0.62;0.00;0.00;0.62;;;;;13.00;1.00;;;;;;2289460;60;1077;-86
2020/12/12 08:09:25;0.00;0.00;0.62;0.00;0.00;0.62;;;;;13.20;1.00;;;;;;2289376;60;1149;-87
2020/12/12 08:11:59;0.00;0.00;0.62;0.00;0.00;0.62;;;;;13.50;1.00;;;;;;2289327;60;1379;-85
2020/12/12 08:14:29;0.00;0.00;0.62;0.00;0.00;0.62;;;;;13.10;1.00;;;;;;2289296;60;1038;-87
2020/12/12 08:16:58;5519.00;0.02;10.18;0.00;0.00;0.62;;;;;12.70;1.00;;;;;;2289273;60;1113;-86
2020/12/12 08:19:26;59451.00;0.20;103.53;0.00;0.00;0.62;;;;;13.00;1.00;;;;;;2289094;60;1661;-86
2020/12/12 08:22:07;0.00;0.00;0.62;0.00;0.00;0.62;;;;;12.80;1.00;;;;;;2289140;60;2018;-86
2020/12/12 08:24:34;0.00;0.00;0.62;0.00;0.00;0.62;;;;;12.90;1.00;;;;;;2289312;60;1066;-87
2020/12/12 08:27:08;17493.00;0.06;30.93;0.00;0.00;0.62;;;;;13.20;1.00;;;;;;2289308;60;1040;-86
2020/12/12 08:29:41;0.00;0.00;0.62;0.00;0.00;0.62;;;;;13.00;1.00;;;;;;2289339;60;1061;-86
2020/12/12 08:32:07;0.00;0.00;0.62;0.00;0.00;0.62;;;;;13.20;1.00;;;;;;2289193;60;1318;-86
2020/12/12 08:34:34;0.00;0.00;0.62;0.00;0.00;0.62;;;;;13.10;1.00;;;;;;2289299;60;1121;-85
2020/12/12 08:37:00;0.00;0.00;0.62;0.00;0.00;0.62;;;;;13.30;1.00;;;;;;2289173;60;1101;-86
2020/12/12 08:39:27;101453.00;0.34;176.08;0.00;0.00;0.62;;;;;13.40;1.00;;;;;;2289165;60;1129;-85
2020/12/12 08:41:56;10423.00;0.03;18.68;0.00;0.00;0.62;;;;;13.70;1.00;;;;;;2289122;60;2012;-86
2020/12/12 08:44:24;10309.00;0.03;18.48;0.00;0.00;0.62;;;;;13.70;1.00;;;;;;2289216;60;1135;-86
2020/12/12 08:46:54;0.00;0.00;0.62;0.00;0.00;0.62;;;;;13.70;1.00;;;;;;2289219;60;1134;-86
2020/12/12 08:49:23;0.00;0.00;0.62;0.00;0.00;0.62;;;;;13.40;1.00;;;;;;2289217;60;1117;-87
2020/12/12 08:51:52;0.00;0.00;0.62;0.00;0.00;0.62;;;;;13.70;1.00;;;;;;2289206;60;1383;-86
2020/12/12 08:54:19;40933.00;0.14;71.50;0.00;0.00;0.62;;;;;13.90;1.00;;;;;;2289200;60;1121;-87
2020/12/12 08:56:45;0.00;0.00;0.62;0.00;0.00;0.62;;;;;14.10;1.00;;;;;;2289242;60;1055;-87
2020/12/12 08:59:19;0.00;0.00;0.62;0.00;0.00;0.62;;;;;14.20;1.00;;;;;;2289208;60;1137;-87
2020/12/12 09:01:46;0.00;0.00;0.62;0.00;0.00;0.62;;;;;14.40;1.00;;;;;;2289236;60;1989;-85
2020/12/12 09:04:21;8007.00;0.03;14.50;0.00;0.00;0.62;;;;;14.50;1.00;;;;;;2289152;60;1342;-85
2020/12/12 09:09:23;364521.00;1.22;628.82;0.00;0.00;0.62;;;;;14.60;1.00;;;;;;2290631;60;1400;-90
2020/12/12 09:11:55;7200.00;0.02;13.10;0.00;0.00;0.62;;;;;14.50;1.00;;;;;;2289219;60;1315;-91
2020/12/12 09:14:23;0.00;0.00;0.62;0.00;0.00;0.62;;;;;14.20;1.00;;;;;;2289113;60;1054;-90
2020/12/12 09:16:52;60297.00;0.20;104.99;0.00;0.00;0.62;;;;;14.10;1.00;;;;;;2289215;60;924;-90
2020/12/12 09:19:20;505218.00;1.68;870.81;0.00;0.00;0.62;;;;;14.10;1.00;;;;;;2289142;60;1085;-90
2020/12/12 09:21:46;47180.00;0.16;82.31;0.00;0.00;0.62;;;;;14.10;1.00;;;;;;2289131;60;1996;-90
2020/12/12 09:24:13;48092.00;0.16;83.89;0.00;0.00;0.62;;;;;13.90;1.00;;;;;;2289177;60;1382;-90
2020/12/12 09:39:31;671623.00;2.24;1158.06;0.00;0.00;0.62;;;;;14.00;1.00;;;;;;2273118;61;1302;-90
2020/12/12 09:41:59;0.00;0.00;0.62;0.00;0.00;0.62;;;;;13.90;1.00;;;;;;2280543;60;1936;-91
2020/12/12 09:44:25;19951.00;0.07;35.19;0.00;0.00;0.62;;;;;13.80;1.00;;;;;;2274385;60;1006;-90
2020/12/12 09:46:52;29629.00;0.10;51.94;0.00;0.00;0.62;;;;;13.90;1.00;;;;;;2277767;60;957;-88
2020/12/12 09:49:18;117742.00;0.39;204.19;0.00;0.00;0.62;;;;;14.00;1.00;;;;;;2277850;60;993;-91
2020/12/12 09:51:46;0.00;0.00;0.62;0.00;0.00;0.62;;;;;14.00;1.00;;;;;;2274306;60;996;-89
2020/12/12 09:54:13;83892.00;0.28;145.76;0.00;0.00;0.62;;;;;14.00;1.00;;;;;;2277731;60;1446;-89
2020/12/12 09:56:40;593.00;0.00;1.65;0.00;0.00;0.62;;;;;14.10;1.00;;;;;;2272279;61;985;-90
2020/12/12 10:09:22;256104.00;0.85;442.45;0.00;0.00;0.62;;;;;14.30;1.00;;;;;;2290501;60;1256;-90
2020/12/12 10:11:50;0.00;0.00;0.62;0.00;0.00;0.62;;;;;14.40;1.00;;;;;;2280378;61;968;-90
2020/12/12 10:14:17;54720.00;0.18;95.35;0.00;0.00;0.62;;;;;14.40;1.00;;;;;;2268109;61;994;-90
2020/12/12 10:16:43;17644.00;0.06;31.19;0.00;0.00;0.62;;;;;14.50;1.00;;;;;;2260102;61;984;-90
2020/12/12 10:19:10;0.00;0.00;0.62;0.00;0.00;0.62;;;;;14.40;1.00;;;;;;2256081;61;995;-90
2020/12/12 10:21:36;35170.00;0.12;61.53;0.00;0.00;0.62;;;;;14.50;1.00;;;;;;2256085;61;1998;-89
2020/12/12 10:24:03;97777.00;0.33;169.73;0.00;0.00;0.62;;;;;14.60;1.00;;;;;;2256178;61;1340;-91
2020/12/12 10:26:29;135556.00;0.45;234.91;0.00;0.00;0.62;;;;;14.50;1.00;;;;;;2256065;61;1199;-90
2020/12/12 10:28:56;66110.00;0.22;115.04;0.00;0.00;0.62;;;;;14.60;1.00;;;;;;2257089;61;1033;-89
2020/12/12 10:31:23;0.00;0.00;0.62;0.00;0.00;0.62;;;;;14.60;1.00;;;;;;2263736;61;990;-90
2020/12/12 10:33:49;15546.00;0.05;27.56;0.00;0.00;0.62;;;;;14.60;1.00;;;;;;2268618;61;1467;-90
2020/12/12 10:36:16;39295.00;0.13;68.67;0.00;0.00;0.62;;;;;14.60;1.00;;;;;;2261243;61;1027;-90
2020/12/12 10:38:43;109055.00;0.36;189.20;0.00;0.00;0.62;;;;;14.50;1.00;;;;;;2272275;61;911;-89
2020/12/12 10:41:12;1631.00;0.01;3.45;0.00;0.00;0.62;;;;;14.60;1.00;;;;;;2265747;61;1998;-91
2020/12/12 10:43:39;219849.00;0.73;380.08;56614.00;0.19;98.62;;;;;14.00;1.00;;;;;;2273006;61;1373;-91
2020/12/12 10:46:07;75739.00;0.25;131.68;0.00;0.00;0.62;;;;;13.80;1.00;;;;;;2266309;61;1113;-90
2020/12/12 10:48:33;97026.00;0.32;168.44;15569.00;0.05;27.60;;;;;13.60;1.00;;;;;;2264875;61;1090;-90
2020/12/12 10:51:00;0.00;0.00;0.62;0.00;0.00;0.62;;;;;13.70;1.00;;;;;;2264968;61;1023;-90
2020/12/12 10:53:26;44042.00;0.15;76.88;0.00;0.00;0.62;;;;;13.90;1.00;;;;;;2261830;61;1337;-90
2020/12/12 10:55:52;179752.00;0.60;311.06;0.00;0.00;0.62;;;;;14.20;1.00;;;;;;2268838;61;1623;-91
2020/12/12 10:58:19;0.00;0.00;0.62;0.00;0.00;0.62;;;;;14.20;1.00;;;;;;2260834;61;1036;-91
2020/12/12 11:00:48;73720.00;0.25;128.19;4305.00;0.01;8.08;;;;;13.90;1.00;;;;;;2260709;61;1992;-88
2020/12/12 11:03:15;0.00;0.00;0.62;0.00;0.00;0.62;;;;;13.20;1.00;;;;;;2260788;61;1332;-90